Time;durP1;ratioP1;P1;durP2;ratioP2;P2;SDS_P1;SDS_P2;PMS_P1;PMS_P2;Temp;Humidity;BMP_temperature;BMP_pressure;BME280_temperature;BME280_humidity;BME280_pressure;Samples;Min_cycle;Max_cycle;Signal;HPM_P1;HPM_P2
2023/12/21 00:00:56;;;;;;;9.00;3.60;;;;;;;17.74;32.10;99339.86;105109;1258;60503;-53
2023/12/21 00:03:23;;;;;;;14.00;9.90;;;;;;;17.76;32.09;99342.19;109119;1258;58081;-56
2023/12/21 00:05:51;;;;;;;11.10;4.20;;;;;;;17.78;32.05;99344.16;109139;1253;63633;-55
2023/12/21 00:08:19;;;;;;;14.60;9.80;;;;;;;17.79;31.94;99346.21;109112;1253;61462;-54
2023/12/21 00:10:46;;;;;;;8.80;3.70;;;;;;;17.79;31.92;99347.29;109095;1253;63789;-54
2023/12/21 00:13:14;;;;;;;13.30;9.10;;;;;;;17.77;31.97;99345.02;107854;1253;60441;-53
2023/12/21 00:15:42;;;;;;;9.30;5.00;;;;;;;17.75;32.11;99351.67;105219;1253;60505;-53
2023/12/21 00:18:09;;;;;;;12.50;8.30;;;;;;;17.72;32.13;99356.90;105240;1258;64963;-52
2023/12/21 00:20:37;;;;;;;9.40;3.00;;;;;;;17.68;32.27;99350.36;105246;1258;61583;-54
2023/12/21 00:23:05;;;;;;;13.10;8.10;;;;;;;17.73;32.24;99350.36;105743;1253;62492;-52
2023/12/21 00:25:32;;;;;;;7.30;3.10;;;;;;;17.80;32.15;99353.67;105261;1256;60662;-52
2023/12/21 00:28:00;;;;;;;8.80;3.50;;;;;;;17.91;32.12;99352.67;105230;1253;60630;-53
2023/12/21 00:30:28;;;;;;;11.90;7.90;;;;;;;18.02;31.89;99354.16;105933;1257;67195;-53
2023/12/21 00:32:56;;;;;;;9.30;3.40;;;;;;;18.07;31.98;99359.56;105196;1259;61490;-55
2023/12/21 00:35:24;;;;;;;11.50;7.50;;;;;;;18.05;31.84;99356.96;105363;1256;62553;-52
2023/12/21 00:37:52;;;;;;;14.10;7.80;;;;;;;17.99;32.00;99353.00;105229;1253;60537;-53
2023/12/21 00:40:19;;;;;;;5.70;2.90;;;;;;;17.93;32.12;99355.88;105328;1253;60560;-54
2023/12/21 00:42:47;;;;;;;8.50;3.50;;;;;;;17.88;32.19;99358.92;105392;1253;63711;-54
2023/12/21 00:45:15;;;;;;;8.20;3.60;;;;;;;17.84;32.41;99362.98;105285;1258;61924;-55
2023/12/21 00:47:43;;;;;;;10.00;7.10;;;;;;;17.76;32.34;99363.27;105260;1253;64223;-53
2023/12/21 00:50:11;;;;;;;8.30;3.40;;;;;;;17.72;32.63;99360.22;105229;1256;60560;-55
2023/12/21 00:52:39;;;;;;;13.40;6.40;;;;;;;17.69;32.72;99355.49;105491;1258;60458;-54
2023/12/21 00:55:07;;;;;;;5.90;1.80;;;;;;;17.65;32.86;99353.14;105368;1254;63635;-54
2023/12/21 00:57:35;;;;;;;4.60;1.80;;;;;;;17.68;32.89;99351.11;105482;1253;61847;-57
2023/12/21 01:00:03;;;;;;;6.00;2.50;;;;;;;17.78;32.96;99353.14;105302;1256;64238;-55
2023/12/21 01:02:30;;;;;;;8.80;5.40;;;;;;;17.88;32.81;99354.16;105829;1256;60556;-55
2023/12/21 01:04:58;;;;;;;5.80;2.50;;;;;;;17.96;32.79;99354.63;105266;1261;60510;-55
2023/12/21 01:07:26;;;;;;;10.10;5.70;;;;;;;18.00;32.70;99352.08;105280;1253;63725;-53
2023/12/21 01:09:53;;;;;;;6.80;2.70;;;;;;;18.04;32.68;99352.55;105850;1258;60528;-55
2023/12/21 01:12:21;;;;;;;8.80;4.70;;;;;;;18.06;32.30;99349.12;105366;1259;71763;-56
2023/12/21 01:14:49;;;;;;;7.30;2.60;;;;;;;18.02;32.44;99346.14;105301;1258;60555;-54
2023/12/21 01:17:17;;;;;;;7.70;4.00;;;;;;;17.99;32.35;99338.38;105305;1259;60608;-55
2023/12/21 01:19:44;;;;;;;3.80;1.20;;;;;;;17.97;32.47;99343.42;105393;1253;64866;-54
2023/12/21 01:22:12;;;;;;;6.30;3.90;;;;;;;17.89;32.45;99342.46;105309;1253;61368;-54
2023/12/21 01:24:40;;;;;;;5.20;1.50;;;;;;;17.84;32.57;99337.48;105255;1253;62482;-53
2023/12/21 01:27:08;;;;;;;4.50;1.40;;;;;;;17.89;32.54;99336.36;105249;1256;60748;-53
2023/12/21 01:29:52;;;;;;;7.90;3.90;;;;;;;17.95;32.40;99340.13;106049;1258;60800;-53
2023/12/21 01:32:20;;;;;;;5.20;1.90;;;;;;;17.98;32.30;99338.75;105281;1254;63655;-56
2023/12/21 01:34:47;;;;;;;6.20;3.60;;;;;;;17.99;32.20;99339.13;105284;1253;61532;-54
2023/12/21 01:37:15;;;;;;;4.80;1.50;;;;;;;17.97;32.22;99338.83;105271;1259;63789;-54
2023/12/21 01:39:43;;;;;;;3.90;1.20;;;;;;;17.96;32.27;99340.66;105275;1253;60511;-55
2023/12/21 01:42:10;;;;;;;5.50;3.00;;;;;;;17.94;32.30;99348.03;105435;1256;60485;-55
2023/12/21 01:44:38;;;;;;;5.50;2.00;;;;;;;17.92;32.15;99349.74;105444;1254;63658;-55
2023/12/21 01:47:05;;;;;;;7.10;3.70;;;;;;;17.88;32.01;99353.80;105299;1253;61545;-55
2023/12/21 01:49:33;;;;;;;3.90;1.20;;;;;;;17.87;32.08;99358.05;105333;1259;62465;-55
2023/12/21 01:52:01;;;;;;;4.30;1.40;;;;;;;17.82;32.03;99359.02;105421;1259;60458;-54
2023/12/21 01:54:29;;;;;;;6.80;3.40;;;;;;;17.74;31.94;99356.27;105735;1258;60615;-53
2023/12/21 01:56:57;;;;;;;3.80;1.20;;;;;;;17.69;32.02;99352.91;105307;1254;64981;-54
2023/12/21 01:59:25;;;;;;;2.50;0.80;;;;;;;17.72;31.79;99353.06;105394;1258;62659;-55
2023/12/21 02:01:54;;;;;;;8.00;3.20;;;;;;;17.79;31.88;99346.96;105847;1256;64238;-53
2023/12/21 02:04:22;;;;;;;3.10;0.90;;;;;;;17.89;31.82;99351.59;105241;1256;60579;-54
2023/12/21 02:06:50;;;;;;;7.40;3.60;;;;;;;17.94;31.72;99342.57;105938;1258;60365;-54
2023/12/21 02:09:18;;;;;;;2.90;1.00;;;;;;;17.90;31.78;99336.57;105522;1253;65074;-54
2023/12/21 02:11:46;;;;;;;6.80;3.60;;;;;;;17.85;31.79;99336.86;105265;1253;61376;-53
2023/12/21 02:14:14;;;;;;;3.30;1.10;;;;;;;17.80;31.78;99343.84;105512;1258;62550;-54
2023/12/21 02:16:51;;;;;;;6.90;3.50;;;;;;;17.76;32.12;99346.16;105283;1253;60516;-54
2023/12/21 02:19:19;;;;;;;4.50;1.80;;;;;;;17.74;32.12;99341.52;106794;1254;60465;-55
2023/12/21 02:21:46;;;;;;;3.90;1.10;;;;;;;17.70;31.89;99335.77;105242;1259;63842;-54
2023/12/21 02:24:14;;;;;;;3.80;1.60;;;;;;;17.65;31.90;99328.82;105278;1253;61380;-55
2023/12/21 02:26:42;;;;;;;5.90;2.90;;;;;;;17.63;31.64;99331.32;105222;1259;62486;-54
2023/12/21 02:29:09;;;;;;;5.20;1.50;;;;;;;17.64;31.58;99334.45;105317;1254;60597;-54
2023/12/21 02:31:37;;;;;;;5.70;2.80;;;;;;;17.66;31.54;99337.13;105328;1259;60310;-55
2023/12/21 02:34:08;;;;;;;5.30;1.60;;;;;;;17.66;31.66;99337.09;105266;1254;64938;-54
2023/12/21 02:36:36;;;;;;;5.00;2.60;;;;;;;17.73;31.41;99344.55;105482;1257;60567;-54
2023/12/21 02:39:04;;;;;;;3.00;1.00;;;;;;;17.81;31.49;99346.89;105233;1257;63741;-54
2023/12/21 02:41:31;;;;;;;6.20;3.20;;;;;;;17.92;31.34;99344.27;105731;1258;60447;-54
2023/12/21 02:43:59;;;;;;;2.80;1.00;;;;;;;17.99;31.11;99343.21;105759;1258;60472;-54
2023/12/21 02:46:27;;;;;;;7.10;3.10;;;;;;;18.04;31.10;99343.11;105316;1258;63655;-52
2023/12/21 02:48:55;;;;;;;4.20;1.30;;;;;;;18.07;31.03;99341.14;105871;1258;60456;-55
2023/12/21 02:51:23;;;;;;;6.70;2.90;;;;;;;18.07;31.10;99338.07;105914;1259;62481;-55
2023/12/21 02:53:50;;;;;;;3.20;0.90;;;;;;;18.03;30.99;99336.31;105301;1254;61650;-55
2023/12/21 02:56:18;;;;;;;6.30;3.30;;;;;;;17.95;31.07;99335.55;105365;1259;59657;-52
2023/12/21 02:58:46;;;;;;;4.40;1.40;;;;;;;17.86;31.00;99335.45;105325;1259;64879;-54
2023/12/21 03:01:13;;;;;;;3.70;1.50;;;;;;;17.80;31.13;99331.25;105274;1253;70473;-54
2023/12/21 03:03:41;;;;;;;6.70;3.20;;;;;;;17.76;31.25;99334.25;105477;1253;64255;-54
2023/12/21 03:06:09;;;;;;;5.30;2.00;;;;;;;17.72;31.28;99338.89;105267;1255;60496;-55
2023/12/21 03:08:37;;;;;;;6.80;4.10;;;;;;;17.69;31.51;99339.77;105234;1260;60309;-54
2023/12/21 03:11:04;;;;;;;4.00;1.70;;;;;;;17.67;31.60;99334.82;105255;1261;64949;-54
2023/12/21 03:13:32;;;;;;;6.50;2.30;;;;;;;17.70;31.60;99333.77;105432;1260;60482;-55
2023/12/21 03:16:04;;;;;;;4.40;1.40;;;;;;;17.70;31.60;99333.73;105544;1257;62472;-55
2023/12/21 03:18:32;;;;;;;7.30;4.00;;;;;;;17.69;31.66;99331.92;105251;1253;60483;-55
2023/12/21 03:21:00;;;;;;;4.10;1.30;;;;;;;17.66;31.56;99330.99;105867;1253;60538;-56
2023/12/21 03:23:28;;;;;;;6.20;3.40;;;;;;;17.67;31.55;99331.70;105415;1258;65008;-54
2023/12/21 03:25:55;;;;;;;3.80;0.90;;;;;;;17.69;31.46;99330.48;105811;1259;62008;-54
2023/12/21 03:28:23;;;;;;;2.90;0.80;;;;;;;17.72;31.39;99332.39;105385;1256;63738;-55
2023/12/21 03:30:51;;;;;;;6.10;3.00;;;;;;;17.76;31.54;99330.08;105299;1258;60527;-52
2023/12/21 03:33:18;;;;;;;4.10;1.00;;;;;;;17.76;31.41;99330.98;105281;1258;60669;-53
2023/12/21 03:35:46;;;;;;;4.10;1.30;;;;;;;17.74;31.38;99328.67;105333;1259;63741;-52
2023/12/21 03:38:14;;;;;;;6.30;3.30;;;;;;;17.66;31.34;99325.76;105323;1253;63989;-52
2023/12/21 03:40:42;;;;;;;2.60;0.80;;;;;;;17.54;31.28;99325.07;105320;1259;62516;-53
2023/12/21 03:43:10;;;;;;;3.80;1.20;;;;;;;17.47;31.29;99325.67;105249;1254;60566;-55
2023/12/21 03:45:40;;;;;;;4.60;1.90;;;;;;;17.39;31.24;99329.09;105519;1258;60528;-53
2023/12/21 03:48:09;;;;;;;3.40;0.70;;;;;;;17.32;31.39;99329.84;105573;1253;63728;-55
2023/12/21 03:50:36;;;;;;;7.30;3.30;;;;;;;17.24;31.30;99332.52;105301;1254;61355;-54
2023/12/21 03:53:05;;;;;;;4.40;1.60;;;;;;;17.17;31.37;99332.63;105417;1253;62541;-54
2023/12/21 03:55:33;;;;;;;5.10;1.20;;;;;;;17.13;31.37;99335.71;105775;1253;60451;-54
2023/12/21 03:58:01;;;;;;;19.20;11.40;;;;;;;17.06;31.25;99338.55;105647;1255;60439;-54
2023/12/21 04:00:28;;;;;;;8.50;3.80;;;;;;;16.99;31.23;99339.70;105291;1254;63797;-54
2023/12/21 04:02:56;;;;;;;6.60;2.20;;;;;;;16.97;31.17;99332.98;105957;1256;61916;-54
2023/12/21 04:05:24;;;;;;;38.10;17.70;;;;;;;16.94;31.19;99327.52;105317;1259;62467;-54
2023/12/21 04:07:52;;;;;;;80.20;49.50;;;;;;;16.92;31.16;99328.61;105934;1259;60736;-54
2023/12/21 04:10:19;;;;;;;25.80;11.40;;;;;;;16.88;31.27;99328.45;105328;1253;60590;-54
2023/12/21 04:12:47;;;;;;;9.70;4.20;;;;;;;16.90;31.26;99327.00;105333;1264;72978;-54
2023/12/21 04:15:16;;;;;;;6.30;2.80;;;;;;;16.95;31.21;99325.00;105276;1258;61543;-54
2023/12/21 04:17:44;;;;;;;12.40;4.50;;;;;;;16.98;31.03;99325.52;105291;1258;63769;-55
2023/12/21 04:20:12;;;;;;;55.80;35.50;;;;;;;17.00;31.02;99327.38;105350;1259;60566;-56
2023/12/21 04:22:39;;;;;;;22.10;9.30;;;;;;;17.02;30.92;99329.39;105374;1254;60502;-55
2023/12/21 04:25:08;;;;;;;25.60;12.80;;;;;;;17.04;31.02;99328.91;105596;1258;64188;-54
2023/12/21 04:27:36;;;;;;;24.00;10.70;;;;;;;17.03;31.06;99327.56;105512;1259;61316;-55
2023/12/21 04:30:04;;;;;;;62.30;40.10;;;;;;;17.01;30.98;99323.70;105276;1259;64349;-56
2023/12/21 04:32:32;;;;;;;60.30;27.90;;;;;;;16.99;31.18;99324.67;105658;1254;60529;-55
2023/12/21 04:35:00;;;;;;;14.90;6.60;;;;;;;16.98;31.20;99325.36;105289;1258;60540;-56
2023/12/21 04:37:27;;;;;;;15.80;11.20;;;;;;;16.92;31.24;99331.38;105329;1258;64927;-55
2023/12/21 04:39:55;;;;;;;11.10;2.80;;;;;;;16.87;31.35;99332.20;105342;1258;69255;-54
2023/12/21 04:42:23;;;;;;;6.00;2.70;;;;;;;16.84;31.40;99336.11;105347;1253;63760;-55
2023/12/21 04:44:50;;;;;;;4.50;1.70;;;;;;;16.81;31.37;99338.39;105795;1258;60546;-54
2023/12/21 04:47:18;;;;;;;7.70;3.80;;;;;;;16.76;31.41;99340.64;105951;1254;60540;-54
2023/12/21 04:49:51;;;;;;;4.70;2.00;;;;;;;16.69;31.35;99347.14;105293;1258;63699;-53
2023/12/21 04:52:19;;;;;;;6.00;2.10;;;;;;;16.61;31.42;99350.53;105333;1259;60416;-53
2023/12/21 04:54:47;;;;;;;6.00;2.10;;;;;;;16.53;31.59;99354.20;105422;1259;62535;-53
2023/12/21 04:57:15;;;;;;;6.50;2.40;;;;;;;16.44;31.58;99357.89;105465;1259;60414;-53
2023/12/21 04:59:45;;;;;;;6.40;2.50;;;;;;;16.40;31.78;99359.34;105320;1260;60360;-54
2023/12/21 05:02:13;;;;;;;6.40;2.50;;;;;;;16.37;31.83;99360.25;105360;1259;63651;-53
2023/12/21 05:04:40;;;;;;;5.00;1.50;;;;;;;16.30;31.98;99359.92;105258;1253;61549;-54
2023/12/21 05:07:10;;;;;;;6.90;3.20;;;;;;;16.25;31.94;99356.02;105230;1259;63727;-53
2023/12/21 05:09:38;;;;;;;5.80;2.10;;;;;;;16.22;31.92;99352.48;105613;1260;60555;-52
2023/12/21 05:12:06;;;;;;;6.30;2.30;;;;;;;16.26;32.02;99350.90;105310;1260;60450;-52
2023/12/21 05:14:34;;;;;;;5.30;2.60;;;;;;;16.32;32.07;99350.32;105695;1253;64890;-54
2023/12/21 05:17:02;;;;;;;4.50;1.20;;;;;;;16.38;31.92;99350.84;105258;1259;62168;-52
2023/12/21 05:19:31;;;;;;;6.80;1.80;;;;;;;16.42;31.78;99352.75;105627;1267;62449;-53
2023/12/21 05:21:59;;;;;;;10.30;2.30;;;;;;;16.39;32.02;99351.43;105301;1259;60559;-54
2023/12/21 05:24:27;;;;;;;8.50;2.90;;;;;;;16.38;31.97;99352.14;105686;1259;60517;-52
2023/12/21 05:26:55;;;;;;;8.00;3.60;;;;;;;16.33;31.80;99352.30;105311;1259;63624;-53
2023/12/21 05:29:22;;;;;;;13.00;7.50;;;;;;;16.30;31.98;99353.96;105350;1257;61266;-52
2023/12/21 05:31:50;;;;;;;7.80;3.50;;;;;;;16.25;32.10;99358.30;105991;1258;63725;-53
2023/12/21 05:34:18;;;;;;;8.00;2.90;;;;;;;16.17;32.03;99361.20;105302;1254;60469;-53
2023/12/21 05:36:45;;;;;;;7.20;2.80;;;;;;;16.08;32.02;99361.85;105196;1258;60466;-55
2023/12/21 05:39:13;;;;;;;10.70;4.00;;;;;;;15.98;32.31;99361.11;105387;1259;64920;-53
2023/12/21 05:41:45;;;;;;;8.00;2.80;;;;;;;15.87;32.38;99362.41;105294;1260;60507;-54
2023/12/21 05:44:13;;;;;;;9.90;3.90;;;;;;;15.76;32.49;99360.36;105332;1259;63843;-53
2023/12/21 05:46:42;;;;;;;9.30;2.90;;;;;;;15.67;32.67;99359.84;105415;1259;60542;-53
2023/12/21 05:49:10;;;;;;;11.60;3.70;;;;;;;15.65;32.79;99359.66;105430;1258;63123;-54
2023/12/21 05:51:38;;;;;;;8.90;3.20;;;;;;;15.63;32.92;99357.05;105497;1253;63637;-53
2023/12/21 05:54:06;;;;;;;13.70;4.80;;;;;;;15.61;32.81;99358.40;105491;1260;60875;-53
2023/12/21 05:56:35;;;;;;;8.20;3.40;;;;;;;15.57;32.73;99354.23;105306;1268;62481;-54
2023/12/21 05:59:03;;;;;;;9.50;4.30;;;;;;;15.54;32.98;99354.06;105718;1259;60474;-54
2023/12/21 06:01:32;;;;;;;9.00;3.60;;;;;;;15.51;32.89;99354.09;105633;1260;60375;-54
2023/12/21 06:04:02;;;;;;;7.60;2.70;;;;;;;15.51;33.02;99354.95;105779;1254;63700;-56
2023/12/21 06:06:30;;;;;;;8.10;3.30;;;;;;;15.55;32.98;99354.12;105664;1258;61543;-53
2023/12/21 06:08:58;;;;;;;7.50;2.60;;;;;;;15.63;33.12;99357.27;105259;1258;62467;-54
2023/12/21 06:11:28;;;;;;;6.80;2.50;;;;;;;15.72;32.90;99363.08;105335;1259;60478;-54
2023/12/21 06:13:55;;;;;;;5.50;1.80;;;;;;;15.81;32.91;99360.13;106617;1257;60359;-49
2023/12/21 06:16:23;;;;;;;7.50;2.00;;;;;;;15.87;32.80;99353.40;105223;1253;64889;-53
2023/12/21 06:18:51;;;;;;;6.90;2.30;;;;;;;15.92;32.66;99352.32;106069;1257;61701;-52
2023/12/21 06:21:19;;;;;;;8.50;2.20;;;;;;;15.89;32.61;99353.75;105344;1259;63847;-52
2023/12/21 06:23:47;;;;;;;5.00;2.00;;;;;;;15.84;32.62;99356.83;105323;1261;60575;-54
2023/12/21 06:26:14;;;;;;;6.00;2.00;;;;;;;15.81;32.57;99357.34;105265;1258;60480;-53
2023/12/21 06:28:42;;;;;;;6.10;2.60;;;;;;;15.76;32.77;99357.52;105241;1259;63726;-53
2023/12/21 06:31:13;;;;;;;4.60;1.50;;;;;;;15.74;33.00;99355.77;105272;1257;60403;-52
2023/12/21 06:33:41;;;;;;;5.70;2.60;;;;;;;15.71;32.93;99357.67;105331;1258;63358;-51
2023/12/21 06:36:09;;;;;;;6.90;2.90;;;;;;;15.67;32.97;99360.34;105197;1259;60560;-54
2023/12/21 06:38:37;;;;;;;6.20;3.10;;;;;;;15.61;33.04;99367.91;105544;1259;60585;-53
2023/12/21 06:41:06;;;;;;;7.20;2.80;;;;;;;15.55;33.28;99370.36;105564;1259;63656;-53
2023/12/21 06:43:34;;;;;;;5.60;2.60;;;;;;;15.55;33.26;99372.02;105639;1254;61360;-53
2023/12/21 06:46:02;;;;;;;7.40;4.00;;;;;;;15.53;33.35;99371.91;105144;1254;64210;-52
2023/12/21 06:48:30;;;;;;;8.50;3.00;;;;;;;15.52;33.49;99372.64;105212;1260;60502;-57
2023/12/21 06:50:59;;;;;;;7.80;2.70;;;;;;;15.50;33.53;99373.41;105255;1259;60604;-63
2023/12/21 06:53:28;;;;;;;5.60;1.60;;;;;;;15.54;33.58;99372.11;105463;1259;64957;-60
2023/12/21 06:55:56;;;;;;;6.90;2.00;;;;;;;15.61;33.53;99371.66;105619;1260;61850;-61
2023/12/21 06:58:44;;;;;;;10.00;2.60;;;;;;;15.70;33.46;99371.71;105430;1259;65218;-58
2023/12/21 07:01:12;;;;;;;7.10;2.60;;;;;;;15.79;33.36;99375.92;105346;1259;60556;-59
2023/12/21 07:03:40;;;;;;;5.50;2.30;;;;;;;15.87;33.54;99378.20;105389;1257;60517;-60
2023/12/21 07:06:11;;;;;;;6.80;2.90;;;;;;;15.93;33.49;99379.00;105391;1259;65044;-59
2023/12/21 07:08:40;;;;;;;6.50;2.70;;;;;;;15.97;33.42;99372.69;105254;1262;61881;-58
2023/12/21 07:11:09;;;;;;;8.40;3.10;;;;;;;16.01;33.50;99374.77;105391;1257;64924;-59
2023/12/21 07:13:37;;;;;;;18.70;9.70;;;;;;;16.03;33.28;99374.55;105515;1256;60555;-57
2023/12/21 07:16:06;;;;;;;21.90;11.10;;;;;;;16.02;33.48;99370.34;105437;1257;60579;-59
2023/12/21 07:18:33;;;;;;;18.20;8.10;;;;;;;16.03;33.43;99363.41;105608;1254;64955;-57
2023/12/21 07:21:02;;;;;;;32.00;16.80;;;;;;;16.09;33.47;99361.98;105250;1260;60552;-60
2023/12/21 07:23:30;;;;;;;16.30;7.90;;;;;;;16.15;33.41;99359.13;105670;1254;62450;-56
2023/12/21 07:25:57;;;;;;;13.60;6.80;;;;;;;16.15;33.40;99364.73;105868;1255;60383;-59
2023/12/21 07:28:28;;;;;;;8.00;4.00;;;;;;;16.12;33.44;99371.95;105178;1259;430017;-56
2023/12/21 07:32:17;;;;;;;11.80;7.70;;;;;;;14.14;37.06;99373.33;102344;1293;600924;-55
2023/12/21 07:34:44;;;;;;;7.70;3.50;;;;;;;15.72;34.32;99368.75;104438;1270;59988;-54
2023/12/21 07:37:16;;;;;;;8.00;4.10;;;;;;;16.00;34.06;99368.68;104496;1267;60905;-54
2023/12/21 07:39:44;;;;;;;8.00;2.60;;;;;;;16.16;34.04;99372.64;104520;1266;63370;-55
2023/12/21 07:42:12;;;;;;;8.00;3.40;;;;;;;16.28;33.91;99377.08;104548;1270;60157;-60
2023/12/21 07:44:39;;;;;;;7.50;2.90;;;;;;;16.33;33.74;99378.95;104422;1268;63753;-59
2023/12/21 07:47:07;;;;;;;10.40;3.50;;;;;;;16.39;33.69;99377.18;104482;1267;298190;-58
2023/12/21 07:49:35;;;;;;;9.50;3.10;;;;;;;16.42;33.65;99379.63;104589;1270;59365;-60
2023/12/21 07:52:03;;;;;;;9.30;3.30;;;;;;;16.40;33.46;99383.77;104904;1264;63332;-59
2023/12/21 07:54:31;;;;;;;14.90;9.10;;;;;;;16.34;33.51;99380.76;105132;1264;61351;-59
2023/12/21 07:56:58;;;;;;;11.70;4.50;;;;;;;16.29;33.70;99377.99;104546;1264;63685;-56
2023/12/21 07:59:26;;;;;;;8.70;3.50;;;;;;;16.29;33.77;99372.48;104725;1264;59713;-56
2023/12/21 08:01:54;;;;;;;8.70;3.50;;;;;;;16.27;33.72;99375.70;104738;1269;59435;-59
2023/12/21 08:04:22;;;;;;;11.90;3.40;;;;;;;16.28;33.75;99376.12;105304;1264;62810;-56
2023/12/21 08:06:50;;;;;;;9.10;3.30;;;;;;;16.35;33.69;99378.30;105290;1269;60147;-61
2023/12/21 08:09:18;;;;;;;13.60;9.20;;;;;;;16.44;33.70;99377.02;105372;1267;62528;-60
2023/12/21 08:11:45;;;;;;;9.10;4.50;;;;;;;16.50;33.47;99369.44;104734;1265;60416;-60
2023/12/21 08:14:13;;;;;;;8.60;4.00;;;;;;;16.51;33.44;99363.05;104640;1267;61138;-62
2023/12/21 08:16:41;;;;;;;67.10;42.30;;;;;;;16.51;33.49;99352.17;104740;1264;62848;-65
2023/12/21 08:19:13;;;;;;;14.50;7.10;;;;;;;16.52;33.59;99347.23;105296;1264;62062;-58
2023/12/21 08:21:40;;;;;;;48.40;20.40;;;;;;;16.55;33.53;99348.42;104705;1269;62440;-58
2023/12/21 08:24:09;;;;;;;24.20;9.90;;;;;;;16.57;33.58;99351.55;104640;1267;59781;-60
2023/12/21 08:26:41;;;;;;;19.00;9.00;;;;;;;16.56;33.42;99350.52;105025;1264;59826;-59
2023/12/21 08:29:08;;;;;;;62.70;26.60;;;;;;;16.54;33.54;99345.75;104779;1264;66532;-59
2023/12/21 08:31:36;;;;;;;136.50;81.70;;;;;;;16.57;33.51;99341.33;104705;1267;60257;-58
2023/12/21 08:34:04;;;;;;;30.70;14.10;;;;;;;16.60;33.44;99341.12;105288;1257;62479;-60
2023/12/21 08:36:32;;;;;;;14.80;6.20;;;;;;;16.62;33.37;99334.55;105364;1257;59765;-58
2023/12/21 08:39:01;;;;;;;11.40;5.30;;;;;;;16.69;33.38;99327.29;105487;1252;60312;-62
2023/12/21 08:41:28;;;;;;;12.80;5.90;;;;;;;16.83;33.32;99319.15;105796;1257;75212;-59
2023/12/21 08:43:56;;;;;;;15.30;11.00;;;;;;;16.93;33.15;99313.65;105497;1254;60440;-58
2023/12/21 08:46:24;;;;;;;9.60;4.50;;;;;;;17.00;33.09;99314.83;105376;1252;62868;-58
2023/12/21 08:48:52;;;;;;;16.80;10.80;;;;;;;17.02;32.98;99317.38;105962;1254;59666;-57
2023/12/21 08:51:19;;;;;;;15.80;4.90;;;;;;;17.02;32.95;99315.36;105297;1258;60574;-57
2023/12/21 08:53:47;;;;;;;11.40;4.70;;;;;;;17.02;32.87;99305.36;105255;1254;64110;-59
2023/12/21 08:56:15;;;;;;;12.60;6.30;;;;;;;17.01;32.76;99301.41;105361;1254;61326;-59
2023/12/21 08:58:43;;;;;;;11.00;3.80;;;;;;;16.97;32.72;99302.61;105364;1254;62437;-58
2023/12/21 09:01:11;;;;;;;11.30;4.50;;;;;;;16.93;32.72;99303.34;105487;1253;59675;-60
2023/12/21 09:03:39;;;;;;;14.90;11.30;;;;;;;16.92;32.85;99296.38;105503;1254;59746;-57
2023/12/21 09:06:08;;;;;;;8.90;4.30;;;;;;;16.91;32.81;99292.74;105375;1257;72876;-58
2023/12/21 09:08:36;;;;;;;10.30;5.00;;;;;;;16.97;32.85;99290.46;105617;1254;61526;-61
2023/12/21 09:11:04;;;;;;;12.00;4.60;;;;;;;17.07;32.77;99285.12;105389;1254;63766;-60
2023/12/21 09:13:32;;;;;;;13.50;10.20;;;;;;;17.16;32.47;99291.81;105794;1254;59534;-61
2023/12/21 09:16:00;;;;;;;13.10;5.20;;;;;;;17.22;32.46;99289.40;105605;1260;59625;-57
2023/12/21 09:18:28;;;;;;;16.70;11.00;;;;;;;17.20;32.51;99283.83;105688;1254;64175;-58
2023/12/21 09:20:56;;;;;;;9.30;4.10;;;;;;;17.19;32.51;99282.55;105273;1256;69039;-58
2023/12/21 09:23:24;;;;;;;8.70;4.10;;;;;;;17.18;32.40;99282.41;105865;1254;63838;-58
2023/12/21 09:25:51;;;;;;;12.30;5.40;;;;;;;17.17;32.37;99280.66;105992;1257;60629;-56
2023/12/21 09:28:20;;;;;;;15.90;12.40;;;;;;;17.18;32.40;99277.65;105337;1254;59599;-59
2023/12/21 09:30:47;;;;;;;12.10;5.60;;;;;;;17.21;32.48;99278.77;106190;1254;64171;-59
2023/12/21 09:33:18;;;;;;;18.30;12.10;;;;;;;17.24;32.55;99277.08;105403;1256;63681;-61
2023/12/21 09:35:46;;;;;;;11.50;4.00;;;;;;;17.28;32.43;99272.73;105356;1257;62572;-58
2023/12/21 09:38:13;;;;;;;8.50;3.90;;;;;;;17.40;32.35;99264.45;105393;1253;63012;-60
2023/12/21 09:40:41;;;;;;;10.10;3.30;;;;;;;17.53;31.92;99262.13;105477;1253;59851;-60
2023/12/21 09:43:11;;;;;;;14.50;9.50;;;;;;;17.61;32.00;99259.48;105253;1260;64659;-61
2023/12/21 09:45:40;;;;;;;12.80;6.10;;;;;;;17.69;31.72;99260.29;105452;1254;72596;-56
2023/12/21 09:48:08;;;;;;;16.70;11.60;;;;;;;17.74;31.57;99250.34;105306;1254;63824;-62
2023/12/21 09:50:36;;;;;;;14.60;5.50;;;;;;;17.80;31.54;99250.61;105617;1256;59870;-60
2023/12/21 09:53:04;;;;;;;9.30;3.80;;;;;;;17.83;31.22;99249.44;105585;1254;59723;-61
2023/12/21 09:55:32;;;;;;;28.60;19.00;;;;;;;17.82;31.22;99242.11;105259;1254;62838;-58
2023/12/21 09:57:59;;;;;;;26.80;10.40;;;;;;;17.87;31.19;99236.33;105316;1254;60194;-58
2023/12/21 10:00:29;;;;;;;65.60;39.40;;;;;;;17.92;31.15;99235.47;105825;1257;74846;-59
2023/12/21 10:02:57;;;;;;;13.80;5.20;;;;;;;17.93;31.09;99229.88;106001;1253;61365;-54
2023/12/21 10:05:25;;;;;;;18.40;8.00;;;;;;;17.96;31.10;99226.46;106068;1253;60025;-58
2023/12/21 10:07:52;;;;;;;19.10;11.50;;;;;;;17.98;30.96;99223.48;106272;1253;62877;-58
2023/12/21 10:10:20;;;;;;;16.20;10.90;;;;;;;17.96;30.78;99223.80;105402;1254;61322;-58
2023/12/21 10:12:48;;;;;;;9.20;3.60;;;;;;;17.95;30.72;99219.52;105514;1253;63732;-59
2023/12/21 10:15:19;;;;;;;19.80;16.00;;;;;;;17.96;30.85;99213.19;105328;1254;59663;-60
2023/12/21 10:17:47;;;;;;;10.90;5.40;;;;;;;18.00;30.86;99209.45;105460;1254;59851;-58
2023/12/21 10:20:15;;;;;;;6.60;3.30;;;;;;;18.14;30.63;99203.79;105508;1254;75171;-59
2023/12/21 10:22:43;;;;;;;12.40;8.20;;;;;;;18.27;30.22;99201.61;108614;1253;60738;-59
2023/12/21 10:25:12;;;;;;;13.80;8.90;;;;;;;18.44;30.07;99201.02;105396;1260;64470;-58
2023/12/21 10:27:51;;;;;;;8.50;3.60;;;;;;;18.58;30.05;99200.11;105433;1254;59670;-59
2023/12/21 10:30:20;;;;;;;10.90;7.80;;;;;;;18.77;29.83;99194.95;107756;1256;59845;-60
2023/12/21 10:32:57;;;;;;;12.80;8.30;;;;;;;18.89;29.42;99197.02;105481;1257;64085;-58
2023/12/21 10:35:26;;;;;;;8.00;3.80;;;;;;;18.98;29.36;99192.67;105507;1254;60104;-60
2023/12/21 10:37:54;;;;;;;10.00;6.60;;;;;;;19.09;29.04;99187.48;105917;1257;63790;-57
2023/12/21 10:40:22;;;;;;;11.20;6.90;;;;;;;19.14;28.66;99185.22;105971;1256;59631;-59
2023/12/21 10:42:53;;;;;;;9.90;6.20;;;;;;;19.09;28.47;99187.56;106051;1253;59550;-58
2023/12/21 10:45:21;;;;;;;6.20;2.70;;;;;;;19.00;28.11;99189.91;105390;1254;66449;-57
2023/12/21 10:48:08;;;;;;;9.70;5.90;;;;;;;18.88;27.92;99188.13;105342;1257;60646;-57
2023/12/21 10:50:36;;;;;;;5.30;2.10;;;;;;;18.79;27.87;99190.65;105738;1254;63008;-59
2023/12/21 10:53:04;;;;;;;8.90;5.50;;;;;;;18.75;28.15;99187.55;105224;1260;59875;-60
2023/12/21 10:55:32;;;;;;;11.90;6.10;;;;;;;18.76;28.03;99184.77;105424;1254;59561;-58
2023/12/21 10:58:00;;;;;;;6.00;2.00;;;;;;;18.73;27.99;99181.95;105257;1254;66361;-61
2023/12/21 11:00:28;;;;;;;12.20;5.80;;;;;;;18.68;27.82;99181.34;105734;1254;72625;-61
2023/12/21 11:02:56;;;;;;;7.10;2.30;;;;;;;18.63;27.78;99179.77;106605;1256;66136;-59
2023/12/21 11:05:26;;;;;;;9.70;5.90;;;;;;;18.62;28.01;99182.20;106791;1257;59631;-60
2023/12/21 11:07:54;;;;;;;8.20;5.30;;;;;;;18.57;27.89;99179.25;105971;1253;59897;-60
2023/12/21 11:10:23;;;;;;;8.90;5.50;;;;;;;18.54;27.94;99165.11;106138;1254;64080;-57
2023/12/21 11:12:51;;;;;;;5.70;2.50;;;;;;;18.52;28.12;99169.29;105467;1257;61067;-60
2023/12/21 11:15:20;;;;;;;10.10;5.70;;;;;;;18.50;28.14;99163.01;105379;1253;62494;-59
2023/12/21 11:18:11;;;;;;;9.50;2.90;;;;;;;18.49;28.20;99151.45;105501;1256;59740;-59
2023/12/21 11:20:45;;;;;;;9.40;6.60;;;;;;;18.52;28.44;99145.18;105485;1254;61128;-59
2023/12/21 11:23:17;;;;;;;8.60;3.60;;;;;;;18.53;28.57;99143.02;106335;1256;64388;-58
2023/12/21 11:25:55;;;;;;;9.40;6.80;;;;;;;18.55;28.55;99135.15;105444;1254;72628;-58
2023/12/21 11:28:27;;;;;;;6.70;3.00;;;;;;;18.61;28.49;99129.21;105934;1253;66089;-59